• Join FlightAware (Why Join?)
  • Login
  • US Flag 
09:43PM EDT


 

Airport Tracker/Info


-or-


 

Live Flight TrackerFlight Track Log ✈ AAL390 ✈ 14-Jan-2014 ✈ KRDU - KORD

Flight Track Log - Related Links

Times and Time Zones

All times are in EST time to prevent confusion due to time zone crossing. See the AAL390 flight status page for this flight to view local times or setup timezone preferences in your user account.

Time Position Orientation Groundspeed Altitude Reporting Facility
EST Latitude Longitude Course Direction KTS MPH feet Rate Location/Type
06:39PM 35.8428 -78.9206 254° West 211 243 6,000  Level Washington Center
06:40PM 36.1692 -79.1689 258° West  Level Estimated
06:40PM 35.8486 -79.0053 275° West 230 265 9,600  Level Washington Center
06:41PM 36.2419 -79.2647 261° West  Level Estimated
06:41PM 35.8436 -79.1050 266° West 260 299 12,600  Level Washington Center
06:42PM 36.3145 -79.3607 258° West  Level Estimated
06:42PM 35.8406 -79.2072 268° West 283 326 15,300  Level Washington Center
06:43PM 35.8356 -79.3044 266° West 313 360 18,100 2,880 Climbing Washington Center
06:44PM 35.8233 -79.4800 265° West 310 357 22,500 2,280 Climbing Atlanta Center
06:45PM 35.8086 -79.5911 261° West 316 364 24,000 1,500 Climbing Atlanta Center
06:46PM 35.7892 -79.6842 256° West 321 369 25,600 960 Climbing Atlanta Center
06:47PM 35.7703 -79.8031 259° West 326 375 26,000 660 Climbing Atlanta Center
06:48PM 35.7494 -79.9269 258° West 346 398 27,000 1,440 Climbing Atlanta Center
06:49PM 35.7283 -80.0431 257° West 346 398 28,900 1,860 Climbing Atlanta Center
06:50PM 35.7089 -80.1564 258° West 346 398 30,800 1,560 Climbing Atlanta Center
06:51PM 35.6875 -80.2725 257° West 346 398 32,100 1,440 Climbing Atlanta Center
06:52PM 35.6681 -80.3886 258° West 346 398 33,700 1,380 Climbing Atlanta Center
06:53PM 35.6714 -80.4983 272° West 327 376 34,900 1,080 Climbing Atlanta Center
06:54PM 35.7469 -80.5897 316° Northwest 333 383 35,900 540 Climbing Atlanta Center
06:55PM 35.8247 -80.6836 316° Northwest 362 417 36,000  Climbing Atlanta Center
06:56PM 35.9044 -80.7753 317° Northwest 376 433 36,000  Level Atlanta Center
06:57PM 35.9819 -80.8722 315° West 387 445 36,000  Level Atlanta Center
06:58PM 36.0575 -80.9669 315° West 387 445 36,000  Level Atlanta Center
06:59PM 36.1367 -81.0564 318° Northwest 387 445 36,000  Level Atlanta Center
07:00PM 36.2325 -81.1353 326° Northwest 397 457 36,000  Level Atlanta Center
07:01PM 36.3283 -81.2167 326° Northwest 408 470 36,000  Level Atlanta Center
07:02PM 36.4258 -81.2933 328° Northwest 418 481 36,000  Level Atlanta Center
07:03PM 36.5236 -81.3753 326° Northwest 418 481 36,000  Level Atlanta Center
07:04PM 36.6233 -81.4547 327° Northwest 424 488 36,000  Level Atlanta Center
07:05PM 36.7189 -81.5422 324° Northwest 430 495 36,000  Level Atlanta Center
07:06PM 36.8022 -81.6381 317° Northwest 425 489 36,000  Level Atlanta Center
07:07PM 36.8750 -81.7422 311° West 405 466 36,000  Level Atlanta Center
07:09PM 36.9611 -81.8603 312° West 405 466 36,000  Level Indianapolis Center
07:10PM 37.0364 -81.9667 312° West 407 468 36,000  Level Indianapolis Center
07:11PM 37.1242 -82.0892 312° West 406 467 36,000  Level Indianapolis Center
07:12PM 37.1994 -82.1947 312° West 407 468 36,000  Level Indianapolis Center
07:13PM 37.2739 -82.3017 311° West 408 470 36,000  Level Indianapolis Center
07:14PM 37.3506 -82.4086 312° West 411 473 36,000  Level Indianapolis Center
07:15PM 37.4253 -82.5158 311° West 409 471 36,000  Level Indianapolis Center
07:16PM 37.5008 -82.6228 312° West 411 473 36,000  Level Indianapolis Center
07:17PM 37.5883 -82.7486 311° West 410 472 36,000  Level Indianapolis Center
07:18PM 37.6633 -82.8567 311° West 410 472 36,000  Level Indianapolis Center
07:19PM 37.7369 -82.9625 311° West 404 465 36,000  Level Indianapolis Center
07:20PM 37.8078 -83.0650 311° West 391 450 36,000  Level Indianapolis Center
07:21PM 37.8794 -83.1708 311° West 393 452 36,000  Level Indianapolis Center
07:22PM 37.9522 -83.2764 311° West 398 458 36,000  Level Indianapolis Center
07:23PM 38.0294 -83.3781 314° West 399 459 36,000  Level Indianapolis Center
07:24PM 38.1419 -83.4800 325° Northwest 423 487 36,000  Level Indianapolis Center
07:25PM 38.2378 -83.5675 324° Northwest 423 487 36,000  Level Indianapolis Center
07:26PM 38.3333 -83.6519 325° Northwest 418 481 36,000  Level Indianapolis Center
07:27PM 38.4292 -83.7389 325° Northwest 421 484 36,000  Level Indianapolis Center
07:28PM 38.5253 -83.8272 324° Northwest 424 488 36,000  Level Indianapolis Center
07:29PM 38.6203 -83.9167 324° Northwest 426 490 36,000  Level Indianapolis Center
07:30PM 38.7181 -84.0061 324° Northwest 426 490 36,000  Level Indianapolis Center
07:31PM 38.8144 -84.0953 324° Northwest 429 494 36,000  Level Indianapolis Center
07:32PM 38.9142 -84.1836 325° Northwest 433 498 36,000  Level Indianapolis Center
07:33PM 39.0117 -84.2722 325° Northwest 429 494 36,000 -600 Level Indianapolis Center
07:34PM 39.1247 -84.3792 324° Northwest 420 483 34,800 -1,140 Descending Indianapolis Center
07:35PM 39.2197 -84.4667 324° Northwest 420 483 33,700 -1,200 Descending Indianapolis Center
07:36PM 39.3150 -84.5542 325° Northwest 419 482 32,400 -1,320 Descending Indianapolis Center
07:37PM 39.4067 -84.6408 324° Northwest 411 473 31,100 -1,440 Descending Indianapolis Center
07:38PM 39.5025 -84.7303 324° Northwest 420 483 29,500 -1,560 Descending Indianapolis Center
07:39PM 39.5975 -84.8189 324° Northwest 420 483 28,000 -780 Descending Indianapolis Center
07:40PM 39.6906 -84.9089 323° Northwest 418 481 28,000  Level Indianapolis Center
07:41PM 39.7839 -84.9967 324° Northwest 417 480 28,000 -660 Level Indianapolis Center
07:42PM 39.8958 -85.1025 324° Northwest 418 481 26,700 -1,020 Descending Indianapolis Center
07:43PM 39.9881 -85.1914 324° Northwest 417 480 26,000 -360 Descending Indianapolis Center
07:45PM 40.0811 -85.2797 324° Northwest 417 480 26,000  Level Indianapolis Center
07:46PM 40.1733 -85.3681 324° Northwest 415 478 26,000  Level Indianapolis Center
07:47PM 40.2642 -85.4561 324° Northwest 412 474 26,000 -360 Level Indianapolis Center
07:48PM 40.3556 -85.5444 324° Northwest 413 475 25,300 -840 Descending Indianapolis Center
07:49PM 40.4481 -85.6331 324° Northwest 415 478 24,300 -900 Descending Indianapolis Center
07:50PM 40.5428 -85.7172 326° Northwest 416 479 23,600 -960 Descending Chicago Center
07:51PM 40.6344 -85.8067 323° Northwest 413 475 22,400 -780 Descending Chicago Center
07:52PM 40.7267 -85.8944 324° Northwest 402 463 22,000 -240 Descending Chicago Center
07:53PM 40.8339 -85.9983 324° Northwest 399 459 22,000  Level Chicago Center
07:54PM 40.9258 -86.0850 325° Northwest 401 461 22,000 -540 Level Chicago Center
07:55PM 41.0150 -86.1706 324° Northwest 399 459 21,000 -1,260 Descending Chicago Center
07:56PM 41.1025 -86.2531 325° Northwest 391 450 19,500 -1,620 Descending Chicago Center
07:57PM 41.1867 -86.3356 324° Northwest 379 436 17,800 -1,620 Descending Chicago Center
07:58PM 41.2689 -86.4158 324° Northwest 369 425 16,300 -1,500 Descending Chicago Center
07:59PM 41.3514 -86.4947 324° Northwest 366 421 14,800 -1,500 Descending Chicago Center
08:00PM 41.4300 -86.5700 324° Northwest 354 407 13,300 -1,380 Descending Chicago Center
08:01PM 41.5197 -86.6586 324° Northwest 339 390 12,000 -600 Descending Chicago Center
08:02PM 41.5903 -86.7283 324° Northwest 335 386 12,100  Climbing Chicago Center
08:03PM 41.6681 -86.7942 328° Northwest 338 389 12,100  Level Chicago Center
08:04PM 41.7656 -86.8069 354° North 356 410 12,100 -300 Level Chicago Center
08:05PM 41.8767 -86.8422 347° North 346 398 11,500 -1,020 Descending Chicago Center
08:06PM 41.9233 -86.9400 303° West 313 360 10,100 -720 Descending Chicago Center
08:07PM 41.9581 -87.0428 294° West 305 351 10,100  Level Chicago Center
08:08PM 41.9817 -87.1431 288° West 288 331 10,100 -600 Level Chicago Center
08:09PM 41.9831 -87.2333 271° West 246 283 8,900 -1,140 Descending Chicago Center
08:10PM 41.9825 -87.3192 270° West 234 269 7,800 -900 Descending Chicago Center
08:11PM 41.9850 -87.4194 272° West 227 261 7,100 -600 Descending Chicago Center
08:12PM 41.9825 -87.4764 267° West 165 190 6,600 -660 Descending Chicago Center
08:13PM 41.9839 -87.5344 272° West 158 182 5,800 -840 Descending Chicago Center
08:14PM 41.9836 -87.5908 270° West 154 177 5,000 -780 Descending Chicago Center
08:15PM 41.9839 -87.6483 270° West 155 178 4,200 -720 Descending Chicago Center
08:16PM 41.9842 -87.7033 270° West 152 175 3,600 -780 Descending Chicago Center
08:17PM 41.9836 -87.7667 269° West 147 169 2,700 -780 Descending Chicago Center
08:18PM 41.9847 -87.8122 272° West 138 159 2,000 -660 Descending Chicago Center
08:19PM 41.9833 -87.8500 267° West 107 123 1,300 -660 Descending Chicago TRACON